sensor_id;sensor_type;location;lat;lon;timestamp;P1;durP1;ratioP1;P2;durP2;ratioP2
13267;SDS011;6702;47.068;15.458;2023-05-10T00:02:43;6.63;;;6.03;;
13267;SDS011;6702;47.068;15.458;2023-05-10T00:05:47;6.33;;;5.70;;
13267;SDS011;6702;47.068;15.458;2023-05-10T00:08:50;5.40;;;4.90;;
13267;SDS011;6702;47.068;15.458;2023-05-10T00:11:53;5.60;;;4.90;;
13267;SDS011;6702;47.068;15.458;2023-05-10T00:14:56;6.67;;;4.83;;
13267;SDS011;6702;47.068;15.458;2023-05-10T00:18:00;5.17;;;4.60;;
13267;SDS011;6702;47.068;15.458;2023-05-10T00:21:04;5.00;;;4.60;;
13267;SDS011;6702;47.068;15.458;2023-05-10T00:24:07;5.93;;;5.43;;
13267;SDS011;6702;47.068;15.458;2023-05-10T00:27:10;7.93;;;6.00;;
13267;SDS011;6702;47.068;15.458;2023-05-10T00:30:13;5.43;;;4.77;;
13267;SDS011;6702;47.068;15.458;2023-05-10T00:33:18;6.03;;;5.50;;
13267;SDS011;6702;47.068;15.458;2023-05-10T00:36:21;6.17;;;5.57;;
13267;SDS011;6702;47.068;15.458;2023-05-10T00:39:25;5.20;;;4.77;;
13267;SDS011;6702;47.068;15.458;2023-05-10T00:42:29;5.23;;;4.80;;
13267;SDS011;6702;47.068;15.458;2023-05-10T00:45:33;5.67;;;5.10;;
13267;SDS011;6702;47.068;15.458;2023-05-10T00:48:39;7.57;;;4.77;;
13267;SDS011;6702;47.068;15.458;2023-05-10T00:51:42;5.43;;;4.90;;
13267;SDS011;6702;47.068;15.458;2023-05-10T00:54:45;6.23;;;5.20;;
13267;SDS011;6702;47.068;15.458;2023-05-10T00:57:49;7.80;;;4.77;;
13267;SDS011;6702;47.068;15.458;2023-05-10T01:00:53;7.00;;;6.30;;
13267;SDS011;6702;47.068;15.458;2023-05-10T01:03:59;5.50;;;4.70;;
13267;SDS011;6702;47.068;15.458;2023-05-10T01:07:03;6.33;;;4.83;;
13267;SDS011;6702;47.068;15.458;2023-05-10T01:10:06;5.00;;;4.50;;
13267;SDS011;6702;47.068;15.458;2023-05-10T01:13:10;7.47;;;5.90;;
13267;SDS011;6702;47.068;15.458;2023-05-10T01:16:15;5.73;;;5.10;;
13267;SDS011;6702;47.068;15.458;2023-05-10T01:19:22;5.33;;;4.83;;
13267;SDS011;6702;47.068;15.458;2023-05-10T01:22:36;5.70;;;5.20;;
13267;SDS011;6702;47.068;15.458;2023-05-10T01:26:13;6.03;;;5.20;;
13267;SDS011;6702;47.068;15.458;2023-05-10T01:29:38;5.13;;;4.63;;
13267;SDS011;6702;47.068;15.458;2023-05-10T01:33:20;6.27;;;5.67;;
13267;SDS011;6702;47.068;15.458;2023-05-10T01:36:29;11.33;;;5.83;;
13267;SDS011;6702;47.068;15.458;2023-05-10T01:39:36;5.90;;;5.13;;
13267;SDS011;6702;47.068;15.458;2023-05-10T01:42:48;5.90;;;5.30;;
13267;SDS011;6702;47.068;15.458;2023-05-10T01:45:58;6.50;;;5.10;;
13267;SDS011;6702;47.068;15.458;2023-05-10T01:49:16;8.37;;;6.60;;
13267;SDS011;6702;47.068;15.458;2023-05-10T01:52:25;5.40;;;4.90;;
13267;SDS011;6702;47.068;15.458;2023-05-10T01:55:34;5.90;;;5.30;;
13267;SDS011;6702;47.068;15.458;2023-05-10T01:58:45;5.40;;;4.90;;
13267;SDS011;6702;47.068;15.458;2023-05-10T02:01:51;5.30;;;4.80;;
13267;SDS011;6702;47.068;15.458;2023-05-10T02:04:56;6.43;;;5.40;;
13267;SDS011;6702;47.068;15.458;2023-05-10T02:08:00;6.73;;;5.70;;
13267;SDS011;6702;47.068;15.458;2023-05-10T02:11:05;7.03;;;6.10;;
13267;SDS011;6702;47.068;15.458;2023-05-10T02:14:09;6.50;;;5.77;;
13267;SDS011;6702;47.068;15.458;2023-05-10T02:17:13;6.90;;;6.20;;
13267;SDS011;6702;47.068;15.458;2023-05-10T02:20:19;5.37;;;4.87;;
13267;SDS011;6702;47.068;15.458;2023-05-10T02:23:24;6.30;;;5.70;;
13267;SDS011;6702;47.068;15.458;2023-05-10T02:26:28;7.83;;;5.70;;
13267;SDS011;6702;47.068;15.458;2023-05-10T02:29:33;6.53;;;5.93;;
13267;SDS011;6702;47.068;15.458;2023-05-10T02:32:38;6.77;;;6.00;;
13267;SDS011;6702;47.068;15.458;2023-05-10T02:35:43;8.20;;;5.40;;
13267;SDS011;6702;47.068;15.458;2023-05-10T02:38:47;6.23;;;4.90;;
13267;SDS011;6702;47.068;15.458;2023-05-10T02:41:52;6.77;;;5.90;;
13267;SDS011;6702;47.068;15.458;2023-05-10T02:44:59;6.30;;;5.80;;
13267;SDS011;6702;47.068;15.458;2023-05-10T02:48:03;6.77;;;5.03;;
13267;SDS011;6702;47.068;15.458;2023-05-10T02:51:08;5.10;;;4.60;;
13267;SDS011;6702;47.068;15.458;2023-05-10T02:54:15;6.40;;;5.80;;
13267;SDS011;6702;47.068;15.458;2023-05-10T02:57:23;6.67;;;5.30;;
13267;SDS011;6702;47.068;15.458;2023-05-10T03:00:29;5.93;;;5.43;;
13267;SDS011;6702;47.068;15.458;2023-05-10T03:03:33;6.97;;;6.37;;
13267;SDS011;6702;47.068;15.458;2023-05-10T03:06:37;6.70;;;6.10;;
13267;SDS011;6702;47.068;15.458;2023-05-10T03:09:41;6.27;;;5.43;;
13267;SDS011;6702;47.068;15.458;2023-05-10T03:12:52;6.67;;;6.10;;
13267;SDS011;6702;47.068;15.458;2023-05-10T03:16:05;8.07;;;5.77;;
13267;SDS011;6702;47.068;15.458;2023-05-10T03:19:15;7.03;;;5.73;;
13267;SDS011;6702;47.068;15.458;2023-05-10T03:22:25;7.37;;;6.67;;
13267;SDS011;6702;47.068;15.458;2023-05-10T03:25:32;6.77;;;5.90;;
13267;SDS011;6702;47.068;15.458;2023-05-10T03:28:36;6.50;;;5.80;;
13267;SDS011;6702;47.068;15.458;2023-05-10T03:31:40;6.77;;;5.93;;
13267;SDS011;6702;47.068;15.458;2023-05-10T03:34:44;7.47;;;6.17;;
13267;SDS011;6702;47.068;15.458;2023-05-10T03:37:48;6.23;;;5.63;;
13267;SDS011;6702;47.068;15.458;2023-05-10T03:40:52;7.63;;;6.63;;
13267;SDS011;6702;47.068;15.458;2023-05-10T03:43:55;7.13;;;6.53;;
13267;SDS011;6702;47.068;15.458;2023-05-10T03:46:58;9.67;;;5.70;;
13267;SDS011;6702;47.068;15.458;2023-05-10T03:50:01;6.20;;;5.60;;
13267;SDS011;6702;47.068;15.458;2023-05-10T03:53:05;6.20;;;5.60;;
13267;SDS011;6702;47.068;15.458;2023-05-10T03:56:08;7.93;;;6.50;;
13267;SDS011;6702;47.068;15.458;2023-05-10T03:59:12;10.17;;;6.77;;
13267;SDS011;6702;47.068;15.458;2023-05-10T04:02:15;5.93;;;5.10;;
13267;SDS011;6702;47.068;15.458;2023-05-10T04:05:18;6.03;;;5.40;;
13267;SDS011;6702;47.068;15.458;2023-05-10T04:08:22;6.13;;;5.53;;
13267;SDS011;6702;47.068;15.458;2023-05-10T04:11:26;6.20;;;5.60;;
13267;SDS011;6702;47.068;15.458;2023-05-10T04:14:29;8.70;;;6.13;;
13267;SDS011;6702;47.068;15.458;2023-05-10T04:17:32;6.30;;;5.70;;
13267;SDS011;6702;47.068;15.458;2023-05-10T04:20:35;5.73;;;5.03;;
13267;SDS011;6702;47.068;15.458;2023-05-10T04:23:40;7.50;;;5.20;;
13267;SDS011;6702;47.068;15.458;2023-05-10T04:26:43;6.70;;;6.07;;
13267;SDS011;6702;47.068;15.458;2023-05-10T04:29:46;5.87;;;5.37;;
13267;SDS011;6702;47.068;15.458;2023-05-10T04:32:49;6.03;;;5.43;;
13267;SDS011;6702;47.068;15.458;2023-05-10T04:35:52;6.60;;;5.90;;
13267;SDS011;6702;47.068;15.458;2023-05-10T04:38:57;6.00;;;5.40;;
13267;SDS011;6702;47.068;15.458;2023-05-10T04:42:00;6.27;;;5.70;;
13267;SDS011;6702;47.068;15.458;2023-05-10T04:45:04;5.47;;;5.00;;
13267;SDS011;6702;47.068;15.458;2023-05-10T04:48:08;7.30;;;5.87;;
13267;SDS011;6702;47.068;15.458;2023-05-10T04:51:14;6.40;;;5.43;;
13267;SDS011;6702;47.068;15.458;2023-05-10T04:54:19;7.07;;;6.33;;
13267;SDS011;6702;47.068;15.458;2023-05-10T04:57:22;8.50;;;4.87;;
13267;SDS011;6702;47.068;15.458;2023-05-10T05:00:25;6.17;;;5.57;;
13267;SDS011;6702;47.068;15.458;2023-05-10T05:03:28;5.77;;;5.03;;
13267;SDS011;6702;47.068;15.458;2023-05-10T05:06:32;6.60;;;5.63;;
13267;SDS011;6702;47.068;15.458;2023-05-10T05:09:36;5.70;;;5.20;;
13267;SDS011;6702;47.068;15.458;2023-05-10T05:12:39;8.67;;;5.83;;
13267;SDS011;6702;47.068;15.458;2023-05-10T05:15:42;7.70;;;5.70;;
13267;SDS011;6702;47.068;15.458;2023-05-10T05:18:46;8.90;;;7.40;;
13267;SDS011;6702;47.068;15.458;2023-05-10T05:21:49;7.40;;;5.43;;
13267;SDS011;6702;47.068;15.458;2023-05-10T05:24:53;7.27;;;5.97;;
13267;SDS011;6702;47.068;15.458;2023-05-10T05:27:57;8.00;;;6.27;;
13267;SDS011;6702;47.068;15.458;2023-05-10T05:31:00;6.73;;;6.03;;
13267;SDS011;6702;47.068;15.458;2023-05-10T05:34:03;5.60;;;5.10;;
13267;SDS011;6702;47.068;15.458;2023-05-10T05:37:06;6.37;;;5.50;;
13267;SDS011;6702;47.068;15.458;2023-05-10T05:40:13;8.10;;;5.70;;
13267;SDS011;6702;47.068;15.458;2023-05-10T05:43:16;7.00;;;6.40;;
13267;SDS011;6702;47.068;15.458;2023-05-10T05:46:19;6.63;;;5.57;;
13267;SDS011;6702;47.068;15.458;2023-05-10T05:49:23;6.60;;;5.87;;
13267;SDS011;6702;47.068;15.458;2023-05-10T05:52:26;6.00;;;5.50;;
13267;SDS011;6702;47.068;15.458;2023-05-10T05:55:30;6.33;;;5.80;;
13267;SDS011;6702;47.068;15.458;2023-05-10T05:58:33;6.97;;;5.23;;
13267;SDS011;6702;47.068;15.458;2023-05-10T06:01:37;7.70;;;5.47;;
13267;SDS011;6702;47.068;15.458;2023-05-10T06:04:41;6.03;;;5.53;;
13267;SDS011;6702;47.068;15.458;2023-05-10T06:07:45;7.47;;;5.43;;
13267;SDS011;6702;47.068;15.458;2023-05-10T06:10:49;8.97;;;6.00;;
13267;SDS011;6702;47.068;15.458;2023-05-10T06:13:52;5.63;;;4.90;;
13267;SDS011;6702;47.068;15.458;2023-05-10T06:16:55;6.10;;;5.50;;
13267;SDS011;6702;47.068;15.458;2023-05-10T06:20:01;5.83;;;5.33;;
13267;SDS011;6702;47.068;15.458;2023-05-10T06:23:04;8.13;;;5.80;;
13267;SDS011;6702;47.068;15.458;2023-05-10T06:26:08;5.80;;;4.80;;
13267;SDS011;6702;47.068;15.458;2023-05-10T06:29:12;6.00;;;5.50;;
13267;SDS011;6702;47.068;15.458;2023-05-10T06:32:16;7.47;;;6.73;;
13267;SDS011;6702;47.068;15.458;2023-05-10T06:35:19;6.27;;;5.53;;
13267;SDS011;6702;47.068;15.458;2023-05-10T06:38:23;5.93;;;4.80;;
13267;SDS011;6702;47.068;15.458;2023-05-10T06:41:27;8.10;;;5.80;;
13267;SDS011;6702;47.068;15.458;2023-05-10T06:44:30;10.33;;;5.30;;
13267;SDS011;6702;47.068;15.458;2023-05-10T06:47:34;6.47;;;5.80;;
13267;SDS011;6702;47.068;15.458;2023-05-10T06:50:39;6.83;;;6.00;;
13267;SDS011;6702;47.068;15.458;2023-05-10T06:53:42;6.00;;;5.40;;
13267;SDS011;6702;47.068;15.458;2023-05-10T06:56:47;7.70;;;6.17;;
13267;SDS011;6702;47.068;15.458;2023-05-10T06:59:50;9.13;;;6.47;;
13267;SDS011;6702;47.068;15.458;2023-05-10T07:02:54;7.17;;;6.50;;
13267;SDS011;6702;47.068;15.458;2023-05-10T07:06:00;7.20;;;6.60;;
13267;SDS011;6702;47.068;15.458;2023-05-10T07:09:05;6.70;;;6.07;;
13267;SDS011;6702;47.068;15.458;2023-05-10T07:12:10;13.63;;;6.43;;
13267;SDS011;6702;47.068;15.458;2023-05-10T07:15:16;7.17;;;6.47;;
13267;SDS011;6702;47.068;15.458;2023-05-10T07:18:19;6.97;;;6.27;;
13267;SDS011;6702;47.068;15.458;2023-05-10T07:21:22;8.97;;;6.60;;
13267;SDS011;6702;47.068;15.458;2023-05-10T07:24:26;6.53;;;5.87;;
13267;SDS011;6702;47.068;15.458;2023-05-10T07:27:31;6.50;;;5.90;;
13267;SDS011;6702;47.068;15.458;2023-05-10T07:30:34;7.13;;;6.33;;
13267;SDS011;6702;47.068;15.458;2023-05-10T07:33:37;5.87;;;5.37;;
13267;SDS011;6702;47.068;15.458;2023-05-10T07:36:41;8.03;;;5.90;;
13267;SDS011;6702;47.068;15.458;2023-05-10T07:39:44;7.20;;;5.70;;
13267;SDS011;6702;47.068;15.458;2023-05-10T07:42:48;6.53;;;5.80;;
13267;SDS011;6702;47.068;15.458;2023-05-10T07:45:52;6.57;;;5.90;;
13267;SDS011;6702;47.068;15.458;2023-05-10T07:48:56;7.30;;;6.10;;
13267;SDS011;6702;47.068;15.458;2023-05-10T07:51:59;10.10;;;5.37;;
13267;SDS011;6702;47.068;15.458;2023-05-10T07:55:03;7.73;;;6.83;;
13267;SDS011;6702;47.068;15.458;2023-05-10T07:58:08;5.97;;;5.43;;
13267;SDS011;6702;47.068;15.458;2023-05-10T08:01:11;8.03;;;6.70;;
13267;SDS011;6702;47.068;15.458;2023-05-10T08:04:14;7.90;;;6.90;;
13267;SDS011;6702;47.068;15.458;2023-05-10T08:07:18;6.60;;;5.90;;
13267;SDS011;6702;47.068;15.458;2023-05-10T08:10:21;6.50;;;5.90;;
13267;SDS011;6702;47.068;15.458;2023-05-10T08:13:25;6.40;;;5.70;;
13267;SDS011;6702;47.068;15.458;2023-05-10T08:16:29;6.20;;;5.70;;
13267;SDS011;6702;47.068;15.458;2023-05-10T08:19:33;6.57;;;5.20;;
13267;SDS011;6702;47.068;15.458;2023-05-10T08:22:37;6.60;;;6.00;;
13267;SDS011;6702;47.068;15.458;2023-05-10T08:25:41;7.90;;;6.27;;
13267;SDS011;6702;47.068;15.458;2023-05-10T08:28:45;7.00;;;6.30;;
13267;SDS011;6702;47.068;15.458;2023-05-10T08:31:48;6.43;;;5.83;;
13267;SDS011;6702;47.068;15.458;2023-05-10T08:34:52;5.70;;;5.17;;
13267;SDS011;6702;47.068;15.458;2023-05-10T08:37:55;7.20;;;4.70;;
13267;SDS011;6702;47.068;15.458;2023-05-10T08:40:58;4.80;;;4.40;;
13267;SDS011;6702;47.068;15.458;2023-05-10T08:44:05;9.07;;;5.10;;
13267;SDS011;6702;47.068;15.458;2023-05-10T08:47:10;5.50;;;4.43;;
13267;SDS011;6702;47.068;15.458;2023-05-10T08:50:15;6.23;;;5.60;;
13267;SDS011;6702;47.068;15.458;2023-05-10T08:53:20;5.90;;;5.40;;
13267;SDS011;6702;47.068;15.458;2023-05-10T08:56:25;6.37;;;5.73;;
13267;SDS011;6702;47.068;15.458;2023-05-10T08:59:30;7.97;;;6.60;;
13267;SDS011;6702;47.068;15.458;2023-05-10T09:02:34;5.83;;;5.23;;
13267;SDS011;6702;47.068;15.458;2023-05-10T09:05:39;6.10;;;5.50;;
13267;SDS011;6702;47.068;15.458;2023-05-10T09:08:42;6.73;;;6.07;;
13267;SDS011;6702;47.068;15.458;2023-05-10T09:11:47;7.10;;;5.70;;
13267;SDS011;6702;47.068;15.458;2023-05-10T09:14:51;7.07;;;6.37;;
13267;SDS011;6702;47.068;15.458;2023-05-10T09:17:56;8.10;;;6.87;;
13267;SDS011;6702;47.068;15.458;2023-05-10T09:21:03;7.10;;;5.70;;
13267;SDS011;6702;47.068;15.458;2023-05-10T09:24:07;6.77;;;6.10;;
13267;SDS011;6702;47.068;15.458;2023-05-10T09:27:10;6.70;;;5.87;;
13267;SDS011;6702;47.068;15.458;2023-05-10T09:30:23;6.70;;;6.03;;
13267;SDS011;6702;47.068;15.458;2023-05-10T09:33:28;5.93;;;5.43;;
13267;SDS011;6702;47.068;15.458;2023-05-10T09:36:31;6.87;;;6.17;;
13267;SDS011;6702;47.068;15.458;2023-05-10T09:39:35;6.33;;;5.73;;
13267;SDS011;6702;47.068;15.458;2023-05-10T09:42:38;6.73;;;5.70;;
13267;SDS011;6702;47.068;15.458;2023-05-10T09:45:44;5.93;;;5.43;;
13267;SDS011;6702;47.068;15.458;2023-05-10T09:48:51;7.17;;;6.27;;
13267;SDS011;6702;47.068;15.458;2023-05-10T09:52:01;5.80;;;5.30;;
13267;SDS011;6702;47.068;15.458;2023-05-10T09:55:05;6.27;;;5.10;;
13267;SDS011;6702;47.068;15.458;2023-05-10T09:58:09;6.23;;;5.40;;
13267;SDS011;6702;47.068;15.458;2023-05-10T10:01:13;6.93;;;6.33;;
13267;SDS011;6702;47.068;15.458;2023-05-10T10:04:17;7.70;;;6.93;;
13267;SDS011;6702;47.068;15.458;2023-05-10T10:07:22;7.13;;;6.53;;
13267;SDS011;6702;47.068;15.458;2023-05-10T10:10:27;7.60;;;6.30;;
13267;SDS011;6702;47.068;15.458;2023-05-10T10:13:31;6.37;;;5.77;;
13267;SDS011;6702;47.068;15.458;2023-05-10T10:16:36;6.57;;;5.97;;
13267;SDS011;6702;47.068;15.458;2023-05-10T10:19:51;6.10;;;5.50;;
13267;SDS011;6702;47.068;15.458;2023-05-10T10:22:55;5.77;;;5.30;;
13267;SDS011;6702;47.068;15.458;2023-05-10T10:25:58;6.20;;;5.37;;
13267;SDS011;6702;47.068;15.458;2023-05-10T10:29:04;6.67;;;6.07;;
13267;SDS011;6702;47.068;15.458;2023-05-10T10:32:20;6.90;;;6.27;;
13267;SDS011;6702;47.068;15.458;2023-05-10T10:35:28;7.20;;;5.90;;
13267;SDS011;6702;47.068;15.458;2023-05-10T10:38:36;5.90;;;5.33;;
13267;SDS011;6702;47.068;15.458;2023-05-10T10:42:00;8.03;;;5.90;;
13267;SDS011;6702;47.068;15.458;2023-05-10T10:45:13;7.73;;;6.30;;
13267;SDS011;6702;47.068;15.458;2023-05-10T10:48:22;6.73;;;6.13;;
13267;SDS011;6702;47.068;15.458;2023-05-10T10:51:28;7.27;;;6.70;;
13267;SDS011;6702;47.068;15.458;2023-05-10T10:54:32;8.70;;;5.53;;
13267;SDS011;6702;47.068;15.458;2023-05-10T10:57:45;6.73;;;6.20;;
13267;SDS011;6702;47.068;15.458;2023-05-10T11:00:49;8.30;;;7.20;;
13267;SDS011;6702;47.068;15.458;2023-05-10T11:04:18;7.63;;;6.90;;
13267;SDS011;6702;47.068;15.458;2023-05-10T11:07:22;6.40;;;5.90;;
13267;SDS011;6702;47.068;15.458;2023-05-10T11:10:26;6.17;;;5.67;;
13267;SDS011;6702;47.068;15.458;2023-05-10T11:13:30;7.20;;;6.60;;
13267;SDS011;6702;47.068;15.458;2023-05-10T11:16:40;7.90;;;7.10;;
13267;SDS011;6702;47.068;15.458;2023-05-10T11:23:11;7.90;;;7.13;;
13267;SDS011;6702;47.068;15.458;2023-05-10T11:26:17;7.47;;;6.80;;
13267;SDS011;6702;47.068;15.458;2023-05-10T11:29:24;7.57;;;6.83;;
13267;SDS011;6702;47.068;15.458;2023-05-10T11:32:28;6.10;;;5.60;;
13267;SDS011;6702;47.068;15.458;2023-05-10T11:35:38;7.20;;;6.47;;
13267;SDS011;6702;47.068;15.458;2023-05-10T11:38:44;6.83;;;6.23;;
13267;SDS011;6702;47.068;15.458;2023-05-10T11:41:48;6.73;;;6.17;;
13267;SDS011;6702;47.068;15.458;2023-05-10T11:44:51;7.50;;;6.90;;
13267;SDS011;6702;47.068;15.458;2023-05-10T11:47:56;8.50;;;6.90;;
13267;SDS011;6702;47.068;15.458;2023-05-10T11:51:01;8.90;;;7.50;;
13267;SDS011;6702;47.068;15.458;2023-05-10T11:54:05;7.47;;;6.87;;
13267;SDS011;6702;47.068;15.458;2023-05-10T11:57:10;7.13;;;6.40;;
13267;SDS011;6702;47.068;15.458;2023-05-10T12:00:14;7.37;;;6.50;;
13267;SDS011;6702;47.068;15.458;2023-05-10T12:03:17;7.40;;;6.10;;
13267;SDS011;6702;47.068;15.458;2023-05-10T12:06:25;6.00;;;5.40;;
13267;SDS011;6702;47.068;15.458;2023-05-10T12:09:29;7.03;;;6.47;;
13267;SDS011;6702;47.068;15.458;2023-05-10T12:12:44;6.63;;;5.17;;
13267;SDS011;6702;47.068;15.458;2023-05-10T12:15:49;7.63;;;6.20;;
13267;SDS011;6702;47.068;15.458;2023-05-10T12:18:56;6.43;;;5.87;;
13267;SDS011;6702;47.068;15.458;2023-05-10T12:22:01;6.10;;;5.60;;
13267;SDS011;6702;47.068;15.458;2023-05-10T12:25:08;6.63;;;6.00;;
13267;SDS011;6702;47.068;15.458;2023-05-10T12:28:12;7.97;;;7.10;;
13267;SDS011;6702;47.068;15.458;2023-05-10T12:31:15;6.47;;;5.87;;
13267;SDS011;6702;47.068;15.458;2023-05-10T12:34:30;6.93;;;6.33;;
13267;SDS011;6702;47.068;15.458;2023-05-10T12:37:35;7.20;;;6.40;;
13267;SDS011;6702;47.068;15.458;2023-05-10T12:40:40;7.60;;;6.00;;
13267;SDS011;6702;47.068;15.458;2023-05-10T12:43:43;6.63;;;6.03;;
13267;SDS011;6702;47.068;15.458;2023-05-10T12:46:47;6.80;;;6.17;;
13267;SDS011;6702;47.068;15.458;2023-05-10T12:49:50;6.00;;;5.60;;
13267;SDS011;6702;47.068;15.458;2023-05-10T12:52:55;5.20;;;4.80;;
13267;SDS011;6702;47.068;15.458;2023-05-10T12:55:58;6.30;;;5.80;;
13267;SDS011;6702;47.068;15.458;2023-05-10T12:59:01;6.93;;;5.70;;
13267;SDS011;6702;47.068;15.458;2023-05-10T13:02:05;6.70;;;6.20;;
13267;SDS011;6702;47.068;15.458;2023-05-10T13:05:09;6.07;;;5.13;;
13267;SDS011;6702;47.068;15.458;2023-05-10T13:08:15;6.53;;;5.93;;
13267;SDS011;6702;47.068;15.458;2023-05-10T13:11:19;7.53;;;6.83;;
13267;SDS011;6702;47.068;15.458;2023-05-10T13:14:22;7.20;;;6.50;;
13267;SDS011;6702;47.068;15.458;2023-05-10T13:17:26;6.53;;;6.00;;
13267;SDS011;6702;47.068;15.458;2023-05-10T13:20:30;5.90;;;5.40;;
13267;SDS011;6702;47.068;15.458;2023-05-10T13:23:35;6.57;;;6.07;;
13267;SDS011;6702;47.068;15.458;2023-05-10T13:26:38;5.97;;;5.37;;
13267;SDS011;6702;47.068;15.458;2023-05-10T13:29:41;6.13;;;5.53;;
13267;SDS011;6702;47.068;15.458;2023-05-10T13:32:45;6.80;;;6.10;;
13267;SDS011;6702;47.068;15.458;2023-05-10T13:35:48;6.40;;;5.90;;
13267;SDS011;6702;47.068;15.458;2023-05-10T13:38:55;7.30;;;6.70;;
13267;SDS011;6702;47.068;15.458;2023-05-10T13:41:59;6.97;;;6.37;;
13267;SDS011;6702;47.068;15.458;2023-05-10T13:45:02;6.57;;;6.07;;
13267;SDS011;6702;47.068;15.458;2023-05-10T13:48:05;7.73;;;6.77;;
13267;SDS011;6702;47.068;15.458;2023-05-10T13:51:09;6.93;;;6.13;;
13267;SDS011;6702;47.068;15.458;2023-05-10T13:54:13;7.70;;;5.60;;
13267;SDS011;6702;47.068;15.458;2023-05-10T13:57:18;6.17;;;5.67;;
13267;SDS011;6702;47.068;15.458;2023-05-10T14:00:21;5.87;;;5.47;;
13267;SDS011;6702;47.068;15.458;2023-05-10T14:03:24;6.53;;;5.60;;
13267;SDS011;6702;47.068;15.458;2023-05-10T14:06:28;6.00;;;5.50;;
13267;SDS011;6702;47.068;15.458;2023-05-10T14:09:33;6.37;;;5.80;;
13267;SDS011;6702;47.068;15.458;2023-05-10T14:12:36;8.20;;;5.83;;
13267;SDS011;6702;47.068;15.458;2023-05-10T14:15:39;6.00;;;5.50;;
13267;SDS011;6702;47.068;15.458;2023-05-10T14:18:42;5.60;;;5.20;;
13267;SDS011;6702;47.068;15.458;2023-05-10T14:21:45;5.60;;;5.10;;
13267;SDS011;6702;47.068;15.458;2023-05-10T14:24:50;6.93;;;5.30;;
13267;SDS011;6702;47.068;15.458;2023-05-10T14:27:53;6.73;;;6.13;;
13267;SDS011;6702;47.068;15.458;2023-05-10T14:30:56;7.57;;;5.43;;
13267;SDS011;6702;47.068;15.458;2023-05-10T14:34:00;6.10;;;5.53;;
13267;SDS011;6702;47.068;15.458;2023-05-10T14:37:04;6.10;;;5.70;;
13267;SDS011;6702;47.068;15.458;2023-05-10T14:40:09;7.30;;;6.70;;
13267;SDS011;6702;47.068;15.458;2023-05-10T14:43:15;7.17;;;6.50;;
13267;SDS011;6702;47.068;15.458;2023-05-10T14:46:18;6.60;;;6.00;;
13267;SDS011;6702;47.068;15.458;2023-05-10T14:49:21;6.20;;;5.80;;
13267;SDS011;6702;47.068;15.458;2023-05-10T14:52:26;6.40;;;5.60;;
13267;SDS011;6702;47.068;15.458;2023-05-10T14:55:32;5.70;;;5.30;;
13267;SDS011;6702;47.068;15.458;2023-05-10T14:58:35;6.33;;;5.93;;
13267;SDS011;6702;47.068;15.458;2023-05-10T15:01:39;6.07;;;5.47;;
13267;SDS011;6702;47.068;15.458;2023-05-10T15:04:43;6.20;;;5.70;;
13267;SDS011;6702;47.068;15.458;2023-05-10T15:07:47;5.93;;;5.40;;
13267;SDS011;6702;47.068;15.458;2023-05-10T15:10:51;6.47;;;5.90;;
13267;SDS011;6702;47.068;15.458;2023-05-10T15:13:56;5.77;;;5.37;;
13267;SDS011;6702;47.068;15.458;2023-05-10T15:17:00;6.20;;;5.73;;
13267;SDS011;6702;47.068;15.458;2023-05-10T15:20:03;6.00;;;5.53;;
13267;SDS011;6702;47.068;15.458;2023-05-10T15:23:06;5.80;;;5.40;;
13267;SDS011;6702;47.068;15.458;2023-05-10T15:26:11;6.27;;;5.77;;
13267;SDS011;6702;47.068;15.458;2023-05-10T15:29:16;6.50;;;5.80;;
13267;SDS011;6702;47.068;15.458;2023-05-10T15:32:21;5.53;;;5.13;;
13267;SDS011;6702;47.068;15.458;2023-05-10T15:35:24;5.63;;;5.13;;
13267;SDS011;6702;47.068;15.458;2023-05-10T15:38:28;6.20;;;5.60;;
13267;SDS011;6702;47.068;15.458;2023-05-10T15:41:32;6.07;;;5.47;;
13267;SDS011;6702;47.068;15.458;2023-05-10T15:44:36;5.23;;;4.83;;
13267;SDS011;6702;47.068;15.458;2023-05-10T15:47:39;5.83;;;5.43;;
13267;SDS011;6702;47.068;15.458;2023-05-10T15:50:42;6.53;;;5.97;;
13267;SDS011;6702;47.068;15.458;2023-05-10T15:53:46;5.50;;;5.10;;
13267;SDS011;6702;47.068;15.458;2023-05-10T15:57:08;5.90;;;5.30;;
13267;SDS011;6702;47.068;15.458;2023-05-10T16:00:11;5.30;;;4.93;;
13267;SDS011;6702;47.068;15.458;2023-05-10T16:03:15;5.00;;;4.60;;
13267;SDS011;6702;47.068;15.458;2023-05-10T16:06:18;5.90;;;4.53;;
13267;SDS011;6702;47.068;15.458;2023-05-10T16:09:21;5.30;;;4.90;;
13267;SDS011;6702;47.068;15.458;2023-05-10T16:12:27;5.03;;;4.67;;
13267;SDS011;6702;47.068;15.458;2023-05-10T16:15:31;7.93;;;6.40;;
13267;SDS011;6702;47.068;15.458;2023-05-10T16:18:34;5.77;;;5.33;;
13267;SDS011;6702;47.068;15.458;2023-05-10T16:21:38;7.87;;;7.27;;
13267;SDS011;6702;47.068;15.458;2023-05-10T16:24:41;4.73;;;4.43;;
13267;SDS011;6702;47.068;15.458;2023-05-10T16:27:46;5.43;;;4.47;;
13267;SDS011;6702;47.068;15.458;2023-05-10T16:30:49;5.57;;;5.17;;
13267;SDS011;6702;47.068;15.458;2023-05-10T16:33:53;5.40;;;4.90;;
13267;SDS011;6702;47.068;15.458;2023-05-10T16:36:56;5.90;;;5.40;;
13267;SDS011;6702;47.068;15.458;2023-05-10T16:39:59;6.00;;;5.50;;
13267;SDS011;6702;47.068;15.458;2023-05-10T16:43:03;6.13;;;5.60;;
13267;SDS011;6702;47.068;15.458;2023-05-10T16:46:10;4.10;;;3.80;;
13267;SDS011;6702;47.068;15.458;2023-05-10T16:49:14;4.90;;;4.50;;
13267;SDS011;6702;47.068;15.458;2023-05-10T16:52:17;4.30;;;3.97;;
13267;SDS011;6702;47.068;15.458;2023-05-10T16:55:20;4.47;;;4.17;;
13267;SDS011;6702;47.068;15.458;2023-05-10T16:58:28;4.80;;;3.87;;
13267;SDS011;6702;47.068;15.458;2023-05-10T17:01:32;4.33;;;3.93;;
13267;SDS011;6702;47.068;15.458;2023-05-10T17:04:35;4.50;;;4.20;;
13267;SDS011;6702;47.068;15.458;2023-05-10T17:07:38;4.63;;;4.23;;
13267;SDS011;6702;47.068;15.458;2023-05-10T17:10:41;4.77;;;3.93;;
13267;SDS011;6702;47.068;15.458;2023-05-10T17:13:46;6.23;;;3.70;;
13267;SDS011;6702;47.068;15.458;2023-05-10T17:16:50;4.43;;;3.67;;
13267;SDS011;6702;47.068;15.458;2023-05-10T17:19:53;4.03;;;3.47;;
13267;SDS011;6702;47.068;15.458;2023-05-10T17:22:56;4.70;;;4.30;;
13267;SDS011;6702;47.068;15.458;2023-05-10T17:26:02;4.50;;;4.10;;
13267;SDS011;6702;47.068;15.458;2023-05-10T17:29:07;4.50;;;4.10;;
13267;SDS011;6702;47.068;15.458;2023-05-10T17:32:11;4.57;;;4.17;;
13267;SDS011;6702;47.068;15.458;2023-05-10T17:35:14;4.00;;;3.70;;
13267;SDS011;6702;47.068;15.458;2023-05-10T17:38:17;4.53;;;4.13;;
13267;SDS011;6702;47.068;15.458;2023-05-10T17:41:20;3.87;;;3.57;;
13267;SDS011;6702;47.068;15.458;2023-05-10T17:44:25;4.90;;;4.27;;
13267;SDS011;6702;47.068;15.458;2023-05-10T17:47:29;4.50;;;4.20;;
13267;SDS011;6702;47.068;15.458;2023-05-10T17:50:33;4.80;;;4.40;;
13267;SDS011;6702;47.068;15.458;2023-05-10T17:53:36;5.30;;;4.80;;
13267;SDS011;6702;47.068;15.458;2023-05-10T17:56:40;4.53;;;4.13;;
13267;SDS011;6702;47.068;15.458;2023-05-10T17:59:44;3.90;;;3.60;;
13267;SDS011;6702;47.068;15.458;2023-05-10T18:02:47;5.10;;;4.10;;
13267;SDS011;6702;47.068;15.458;2023-05-10T18:05:51;4.00;;;3.70;;
13267;SDS011;6702;47.068;15.458;2023-05-10T18:08:55;4.33;;;3.93;;
13267;SDS011;6702;47.068;15.458;2023-05-10T18:12:00;4.37;;;3.83;;
13267;SDS011;6702;47.068;15.458;2023-05-10T18:15:05;7.43;;;6.77;;
13267;SDS011;6702;47.068;15.458;2023-05-10T18:18:09;9.37;;;8.37;;
13267;SDS011;6702;47.068;15.458;2023-05-10T18:21:12;8.73;;;7.63;;
13267;SDS011;6702;47.068;15.458;2023-05-10T18:24:16;5.50;;;5.00;;
13267;SDS011;6702;47.068;15.458;2023-05-10T18:27:37;5.20;;;4.70;;
13267;SDS011;6702;47.068;15.458;2023-05-10T18:30:45;5.80;;;5.30;;
13267;SDS011;6702;47.068;15.458;2023-05-10T18:33:48;4.77;;;4.37;;
13267;SDS011;6702;47.068;15.458;2023-05-10T18:36:51;3.73;;;3.43;;
13267;SDS011;6702;47.068;15.458;2023-05-10T18:39:55;4.27;;;3.87;;